createdAt,value
2019-02-10T00:00:48.581Z,1.00
2019-02-10T00:03:17.359Z,1.00
2019-02-10T00:05:46.092Z,1.00
2019-02-10T00:08:14.868Z,1.00
2019-02-10T00:10:43.977Z,1.00
2019-02-10T00:13:29.690Z,1.00
2019-02-10T00:16:00.459Z,1.00
2019-02-10T00:18:29.198Z,1.00
2019-02-10T00:20:57.968Z,1.00
2019-02-10T00:23:26.814Z,1.00
2019-02-10T00:25:55.576Z,1.00
2019-02-10T00:28:24.906Z,1.00
2019-02-10T00:30:53.693Z,1.00
2019-02-10T00:33:22.527Z,1.00
2019-02-10T00:35:51.305Z,1.00
2019-02-10T00:38:20.123Z,1.00
2019-02-10T00:40:48.907Z,1.00
2019-02-10T00:43:17.734Z,1.00
2019-02-10T00:45:46.497Z,1.00
2019-02-10T00:48:15.219Z,1.00
2019-02-10T00:50:43.954Z,1.00
2019-02-10T00:53:12.754Z,1.00
2019-02-10T00:55:41.530Z,1.00
2019-02-10T00:58:10.330Z,1.00
2019-02-10T01:00:39.105Z,1.00
2019-02-10T01:03:07.902Z,1.00
2019-02-10T01:05:36.752Z,5.80
2019-02-10T01:08:05.825Z,3.30
2019-02-10T01:10:34.585Z,5.00
2019-02-10T01:13:03.318Z,11.20
2019-02-10T01:15:32.070Z,14.40
2019-02-10T01:18:00.895Z,16.50
2019-02-10T01:20:29.671Z,25.20
2019-02-10T01:22:58.509Z,29.30
2019-02-10T01:25:27.299Z,34.00
2019-02-10T01:27:56.141Z,38.80
2019-02-10T01:30:24.877Z,38.30
2019-02-10T01:32:53.756Z,43.20
2019-02-10T01:35:22.503Z,45.50
2019-02-10T01:37:51.528Z,51.60
2019-02-10T01:40:20.317Z,56.60
2019-02-10T01:42:49.166Z,57.40
2019-02-10T01:45:17.933Z,59.10
2019-02-10T01:47:46.804Z,55.90
2019-02-10T01:50:15.601Z,58.60
2019-02-10T01:52:44.431Z,59.10
2019-02-10T01:55:13.809Z,61.70
2019-02-10T01:57:42.629Z,60.60
2019-02-10T02:00:14.481Z,62.60
2019-02-10T02:02:43.243Z,65.30
2019-02-10T02:05:12.057Z,62.40
2019-02-10T02:07:40.861Z,63.40
2019-02-10T02:10:16.676Z,64.50
2019-02-10T02:12:45.519Z,68.50
2019-02-10T02:15:15.619Z,66.80
2019-02-10T02:17:44.505Z,67.10
2019-02-10T02:20:14.182Z,64.10
2019-02-10T02:22:43.014Z,69.10
2019-02-10T02:25:13.168Z,69.60
2019-02-10T02:27:41.978Z,70.00
2019-02-10T02:30:12.766Z,73.50
2019-02-10T02:32:41.500Z,73.20
2019-02-10T02:35:10.666Z,73.70
2019-02-10T02:37:39.441Z,70.20
2019-02-10T02:40:12.244Z,66.10
2019-02-10T02:42:41.099Z,69.10
2019-02-10T02:45:11.774Z,65.40
2019-02-10T02:47:40.618Z,69.50
2019-02-10T02:50:11.073Z,68.30
2019-02-10T02:52:39.910Z,68.50
2019-02-10T02:55:11.926Z,68.60
2019-02-10T02:57:40.727Z,64.30
2019-02-10T03:00:10.709Z,65.40
2019-02-10T03:02:39.456Z,66.50
2019-02-10T03:05:09.967Z,67.90
2019-02-10T03:07:38.724Z,68.70
2019-02-10T03:10:09.240Z,69.60
2019-02-10T03:12:38.034Z,69.50
2019-02-10T03:15:08.904Z,67.10
2019-02-10T03:17:37.682Z,67.30
2019-02-10T03:20:07.837Z,65.40
2019-02-10T03:22:36.571Z,67.70
2019-02-10T03:25:07.054Z,67.60
2019-02-10T03:27:35.834Z,69.30
2019-02-10T03:30:11.773Z,63.00
2019-02-10T03:32:41.064Z,64.20
2019-02-10T03:35:10.243Z,62.00
2019-02-10T03:37:39.278Z,60.90
2019-02-10T03:40:09.687Z,62.50
2019-02-10T03:42:38.407Z,61.60
2019-02-10T03:45:08.307Z,63.20
2019-02-10T03:47:37.129Z,63.10
2019-02-10T03:50:07.513Z,60.60
2019-02-10T03:52:36.303Z,63.10
2019-02-10T03:55:06.582Z,65.30
2019-02-10T03:57:35.704Z,67.70
2019-02-10T04:00:12.370Z,65.80
2019-02-10T04:02:41.117Z,67.60
2019-02-10T04:05:09.853Z,66.70
2019-02-10T04:07:38.627Z,68.80
2019-02-10T04:10:12.257Z,68.30
2019-02-10T04:12:41.053Z,69.80
2019-02-10T04:15:10.045Z,72.50
2019-02-10T04:17:38.801Z,77.50
2019-02-10T04:20:09.274Z,81.20
2019-02-10T04:22:37.999Z,80.00
2019-02-10T04:25:07.413Z,85.40
2019-02-10T04:27:36.181Z,83.10
2019-02-10T04:30:09.168Z,83.40
2019-02-10T04:32:38.369Z,81.90
2019-02-10T04:35:07.168Z,84.20
2019-02-10T04:37:44.986Z,84.00
2019-02-10T04:40:07.273Z,90.60
2019-02-10T04:42:36.044Z,90.50
2019-02-10T04:45:05.612Z,89.60
2019-02-10T04:47:34.371Z,89.50
2019-02-10T04:50:03.300Z,88.00
2019-02-10T04:52:32.073Z,90.30
2019-02-10T04:55:00.801Z,88.90
2019-02-10T04:57:29.610Z,88.20
2019-02-10T04:59:58.353Z,86.00
2019-02-10T05:02:27.128Z,85.30
2019-02-10T05:04:55.937Z,86.00
2019-02-10T05:07:24.677Z,86.80
2019-02-10T05:09:53.422Z,90.30
2019-02-10T05:12:22.156Z,90.30
2019-02-10T05:14:50.909Z,88.40
2019-02-10T05:17:19.702Z,88.30
2019-02-10T05:19:48.498Z,90.00
2019-02-10T05:22:17.222Z,90.10
2019-02-10T05:24:45.963Z,90.50
2019-02-10T05:27:14.757Z,91.10
2019-02-10T05:29:43.587Z,89.70
2019-02-10T05:32:12.404Z,88.70
2019-02-10T05:34:41.171Z,88.90
2019-02-10T05:37:09.957Z,86.30
2019-02-10T05:39:38.718Z,88.00
2019-02-10T05:42:07.495Z,84.80
2019-02-10T05:44:36.311Z,85.50
2019-02-10T05:47:05.091Z,81.80
2019-02-10T05:49:34.183Z,81.90
2019-02-10T05:52:02.923Z,80.80
2019-02-10T05:54:31.685Z,79.20
2019-02-10T05:57:00.461Z,74.90
2019-02-10T05:59:29.276Z,76.40
2019-02-10T06:02:10.646Z,79.80
2019-02-10T06:04:43.422Z,72.40
2019-02-10T06:07:17.961Z,69.10
2019-02-10T06:09:46.725Z,68.90
2019-02-10T06:12:16.150Z,68.10
2019-02-10T06:14:44.974Z,62.90
2019-02-10T06:17:13.763Z,63.70
2019-02-10T06:19:42.530Z,62.40
2019-02-10T06:22:11.298Z,64.40
2019-02-10T06:24:40.112Z,65.40
2019-02-10T06:27:08.846Z,61.20
2019-02-10T06:29:37.932Z,58.60
2019-02-10T06:32:06.706Z,60.90
2019-02-10T06:34:35.427Z,61.00
2019-02-10T06:37:04.231Z,64.70
2019-02-10T06:39:33.028Z,59.80
2019-02-10T06:42:01.824Z,60.70
2019-02-10T06:44:30.686Z,61.90
2019-02-10T06:46:59.420Z,63.60
2019-02-10T06:49:28.195Z,62.80
2019-02-10T06:51:57.005Z,61.60
2019-02-10T06:54:25.784Z,60.20
2019-02-10T06:56:54.606Z,59.10
2019-02-10T06:59:25.007Z,58.30
2019-02-10T07:01:55.428Z,58.20
2019-02-10T07:04:24.232Z,58.80
2019-02-10T07:06:53.175Z,58.70
2019-02-10T07:09:23.586Z,56.90
2019-02-10T07:11:52.401Z,57.20
2019-02-10T07:14:27.065Z,55.90
2019-02-10T07:17:07.747Z,56.80
2019-02-10T07:20:12.909Z,54.40
2019-02-10T07:22:44.725Z,54.10
2019-02-10T07:25:16.551Z,47.20
2019-02-10T07:28:03.423Z,46.60
2019-02-10T07:30:44.272Z,49.80
2019-02-10T07:33:16.109Z,45.20
2019-02-10T07:36:05.397Z,45.60
2019-02-10T07:38:38.761Z,35.90
2019-02-10T07:41:43.015Z,32.70
2019-02-10T07:44:17.918Z,40.10
2019-02-10T07:47:08.044Z,33.40
2019-02-10T07:50:13.212Z,39.80
2019-02-10T07:52:50.864Z,37.90
2019-02-10T07:55:42.375Z,40.80
2019-02-10T07:58:32.399Z,41.10
2019-02-10T08:01:19.414Z,38.30
2019-02-10T08:03:56.968Z,39.80
2019-02-10T08:06:49.568Z,40.30
2019-02-10T08:09:29.927Z,32.50
2019-02-10T08:12:01.789Z,31.00
2019-02-10T08:14:42.367Z,31.00
2019-02-10T08:17:22.981Z,22.80
2019-02-10T08:20:12.512Z,24.70
2019-02-10T08:22:59.266Z,31.40
2019-02-10T08:25:42.398Z,45.10
2019-02-10T08:28:32.397Z,55.80
2019-02-10T08:31:13.161Z,92.20
2019-02-10T08:33:45.004Z,94.00
2019-02-10T08:36:48.767Z,95.90
2019-02-10T08:39:20.640Z,99.90
2019-02-10T08:41:55.058Z,99.90
2019-02-10T08:44:26.894Z,99.90
2019-02-10T08:47:04.861Z,99.90
2019-02-10T08:50:01.086Z,99.90
2019-02-10T08:52:51.747Z,99.90
2019-02-10T08:55:15.622Z,99.90
2019-02-10T08:57:44.719Z,99.90
2019-02-10T09:00:13.524Z,99.90
2019-02-10T09:02:42.365Z,99.90
2019-02-10T09:05:11.472Z,99.90
2019-02-10T09:07:40.271Z,99.90
2019-02-10T09:10:11.605Z,99.90
2019-02-10T09:12:40.415Z,99.90
2019-02-10T09:15:11.575Z,99.90
2019-02-10T09:17:40.454Z,99.90
2019-02-10T09:20:10.850Z,99.90
2019-02-10T09:22:39.582Z,99.90
2019-02-10T09:25:10.775Z,99.90
2019-02-10T09:27:39.497Z,99.90
2019-02-10T09:30:13.516Z,99.90
2019-02-10T09:32:42.726Z,99.90
2019-02-10T09:35:13.042Z,99.90
2019-02-10T09:37:41.852Z,99.90
2019-02-10T09:40:13.905Z,99.90
2019-02-10T09:42:42.704Z,99.90
2019-02-10T09:45:12.917Z,99.90
2019-02-10T09:47:41.681Z,99.90
2019-02-10T09:50:13.463Z,99.90
2019-02-10T09:52:42.259Z,99.90
2019-02-10T09:55:11.212Z,99.90
2019-02-10T09:57:40.024Z,99.90
2019-02-10T10:00:15.542Z,99.90
2019-02-10T10:02:44.350Z,99.90
2019-02-10T10:05:13.794Z,99.90
2019-02-10T10:07:42.570Z,99.90
2019-02-10T10:10:13.340Z,99.90
2019-02-10T10:12:41.995Z,99.90
2019-02-10T10:15:15.824Z,99.90
2019-02-10T10:17:44.568Z,99.90
2019-02-10T10:20:15.974Z,99.90
2019-02-10T10:22:44.829Z,99.90
2019-02-10T10:25:14.380Z,99.90
2019-02-10T10:27:43.188Z,99.90
2019-02-10T10:30:14.839Z,99.90
2019-02-10T10:32:43.591Z,99.90
2019-02-10T10:35:12.435Z,99.90
2019-02-10T10:37:41.334Z,99.90
2019-02-10T10:40:11.564Z,99.90
2019-02-10T10:42:40.352Z,99.90
2019-02-10T10:45:14.365Z,99.90
2019-02-10T10:47:43.131Z,99.90
2019-02-10T10:50:14.301Z,99.90
2019-02-10T10:52:43.083Z,99.90
2019-02-10T10:55:12.891Z,99.90
2019-02-10T10:57:41.643Z,99.90
2019-02-10T11:00:15.042Z,99.90
2019-02-10T11:02:43.812Z,99.90
2019-02-10T11:05:12.625Z,99.90
2019-02-10T11:07:42.298Z,99.90
2019-02-10T11:10:12.542Z,99.90
2019-02-10T11:12:41.340Z,99.90
2019-02-10T11:15:12.970Z,99.90
2019-02-10T11:17:41.731Z,99.90
2019-02-10T11:20:11.647Z,99.90
2019-02-10T11:22:40.482Z,99.90
2019-02-10T11:25:10.828Z,99.90
2019-02-10T11:27:39.582Z,99.90
2019-02-10T11:30:13.845Z,99.90
2019-02-10T11:32:42.762Z,99.90
2019-02-10T11:35:11.777Z,99.90
2019-02-10T11:37:40.596Z,99.90
2019-02-10T11:40:11.958Z,99.90
2019-02-10T11:42:40.736Z,99.90
2019-02-10T11:45:12.214Z,99.90
2019-02-10T11:47:40.970Z,99.90
2019-02-10T11:50:12.459Z,99.90
2019-02-10T11:52:41.284Z,99.90
2019-02-10T11:55:11.179Z,99.90
2019-02-10T11:57:39.968Z,99.90
2019-02-10T12:00:18.399Z,99.90
2019-02-10T12:02:47.167Z,99.90
2019-02-10T12:05:15.901Z,99.90
2019-02-10T12:07:44.677Z,99.90
2019-02-10T12:10:16.092Z,99.90
2019-02-10T12:12:44.878Z,99.90
2019-02-10T12:15:16.528Z,99.90
2019-02-10T12:17:45.280Z,99.90
2019-02-10T12:20:14.750Z,99.90
2019-02-10T12:22:50.031Z,99.90
2019-02-10T12:25:13.991Z,99.90
2019-02-10T12:27:42.773Z,99.90
2019-02-10T12:30:16.445Z,99.90
2019-02-10T12:32:45.220Z,99.90
2019-02-10T12:35:14.300Z,99.90
2019-02-10T12:37:43.068Z,99.90
2019-02-10T12:40:12.405Z,99.90
2019-02-10T12:42:41.246Z,99.90
2019-02-10T12:45:13.960Z,99.90
2019-02-10T12:47:43.162Z,99.90
2019-02-10T12:50:15.557Z,99.90
2019-02-10T12:52:44.310Z,99.90
2019-02-10T12:55:13.328Z,99.90
2019-02-10T12:57:42.073Z,99.90
2019-02-10T13:00:16.466Z,99.90
2019-02-10T13:02:45.310Z,99.90
2019-02-10T13:05:14.080Z,99.90
2019-02-10T13:07:42.886Z,99.90
2019-02-10T13:10:13.212Z,99.90
2019-02-10T13:12:42.045Z,99.90
2019-02-10T13:15:11.809Z,99.90
2019-02-10T13:17:40.590Z,99.90
2019-02-10T13:20:13.403Z,99.90
2019-02-10T13:22:42.389Z,99.90
2019-02-10T13:25:12.360Z,99.90
2019-02-10T13:27:41.129Z,99.90
2019-02-10T14:04:50.153Z,99.90
2019-02-10T14:25:38.011Z,99.90
2019-02-10T14:31:31.296Z,99.90
2019-02-10T14:34:12.724Z,99.90
2019-02-10T14:36:53.483Z,99.90
2019-02-10T15:03:28.137Z,99.90
2019-02-10T15:17:45.003Z,99.90
2019-02-10T15:20:26.213Z,99.90
2019-02-10T15:49:58.390Z,99.90
2019-02-10T16:04:35.933Z,99.90
2019-02-10T16:10:16.830Z,99.90
2019-02-10T16:12:45.720Z,99.90
2019-02-10T16:15:34.098Z,99.90
2019-02-10T16:18:02.917Z,99.90
2019-02-10T16:20:31.734Z,99.90
2019-02-10T16:23:00.931Z,99.90
2019-02-10T16:25:29.676Z,99.90
2019-02-10T16:27:58.494Z,99.90
2019-02-10T16:33:34.668Z,99.90
2019-02-10T16:36:03.440Z,99.90
2019-02-10T16:41:20.030Z,99.90
2019-02-10T16:46:55.943Z,99.90
2019-02-10T16:52:49.809Z,99.90
2019-02-10T16:58:14.150Z,99.90
2019-02-10T17:00:55.126Z,99.90
2019-02-10T17:03:23.926Z,99.90
2019-02-10T17:05:52.717Z,99.90
2019-02-10T17:08:21.644Z,99.90
2019-02-10T17:28:01.224Z,99.90
2019-02-10T17:30:30.070Z,99.90
2019-02-10T17:55:58.380Z,99.90
2019-02-10T18:04:55.941Z,99.90
2019-02-10T18:31:33.326Z,99.90
2019-02-10T18:34:34.026Z,99.90
2019-02-10T18:45:38.458Z,99.90
2019-02-10T19:00:48.457Z,99.90
2019-02-10T19:06:43.370Z,99.90
2019-02-10T19:12:25.677Z,99.90
2019-02-10T19:30:04.778Z,99.90
2019-02-10T19:32:38.044Z,99.90
2019-02-10T19:35:23.801Z,99.90
2019-02-10T19:38:02.719Z,99.90
2019-02-10T19:40:51.220Z,99.90
2019-02-10T19:43:30.524Z,99.90
2019-02-10T19:46:00.931Z,99.90
2019-02-10T19:48:40.038Z,99.90
2019-02-10T19:51:27.059Z,99.90
2019-02-10T19:54:03.583Z,99.90
2019-02-10T19:56:34.069Z,99.90
2019-02-10T19:59:20.865Z,99.90
2019-02-10T20:01:51.303Z,99.90
2019-02-10T20:04:33.967Z,99.90
2019-02-10T20:07:10.482Z,99.90
2019-02-10T20:09:41.030Z,99.90
2019-02-10T20:12:11.499Z,99.90
2019-02-10T20:14:47.801Z,99.90
2019-02-10T20:17:24.165Z,99.90
2019-02-10T20:19:57.238Z,99.90
2019-02-10T20:22:33.732Z,99.90
2019-02-10T20:25:06.793Z,99.90
2019-02-10T20:27:43.188Z,99.90
2019-02-10T20:30:19.620Z,99.90
2019-02-10T20:32:59.010Z,99.90
2019-02-10T20:35:38.507Z,99.90
2019-02-10T20:38:18.113Z,99.90
2019-02-10T20:40:48.569Z,99.90
2019-02-10T20:43:19.008Z,99.90
2019-02-10T20:45:52.542Z,99.90
2019-02-10T20:48:37.901Z,99.90
2019-02-10T20:51:17.560Z,99.90
2019-02-10T20:53:47.945Z,99.90
2019-02-10T20:56:36.448Z,99.90
2019-02-10T20:59:12.821Z,99.90
2019-02-10T21:01:43.310Z,99.90
2019-02-10T21:04:13.676Z,99.90
2019-02-10T21:06:59.421Z,99.90
2019-02-10T21:09:38.630Z,99.90
2019-02-10T21:12:11.813Z,99.90
2019-02-10T21:15:00.572Z,99.90
2019-02-10T21:17:30.993Z,99.90
2019-02-10T21:20:01.388Z,99.90
2019-02-10T21:22:46.974Z,99.90
2019-02-10T21:25:23.643Z,99.90
2019-02-10T21:27:54.063Z,99.90
2019-02-10T21:30:41.029Z,99.90
2019-02-10T21:33:11.401Z,99.90
2019-02-10T21:35:54.088Z,99.90
2019-02-10T21:38:24.495Z,99.90
2019-02-10T21:40:57.940Z,99.90
2019-02-10T21:43:37.271Z,99.90
2019-02-10T21:46:07.690Z,99.90
2019-02-10T21:48:36.630Z,99.90
2019-02-10T21:51:05.498Z,99.90
2019-02-10T21:53:34.257Z,99.90
2019-02-10T21:56:03.004Z,99.90
2019-02-10T21:58:31.762Z,99.90
2019-02-10T22:01:00.562Z,99.90
2019-02-10T22:03:29.346Z,99.90
2019-02-10T22:05:58.170Z,99.90
2019-02-10T22:08:26.936Z,99.90
2019-02-10T22:10:55.746Z,99.90
2019-02-10T22:13:24.476Z,99.90
2019-02-10T22:15:53.254Z,99.90
2019-02-10T22:18:22.071Z,99.90
2019-02-10T22:20:50.878Z,99.90
2019-02-10T22:23:19.631Z,99.90
2019-02-10T22:25:48.376Z,99.90
2019-02-10T22:28:17.145Z,99.90
2019-02-10T22:30:45.908Z,99.90
2019-02-10T22:33:14.700Z,99.90
2019-02-10T22:35:43.503Z,99.90
2019-02-10T22:38:12.296Z,99.90
2019-02-10T22:40:41.069Z,99.90
2019-02-10T22:43:09.834Z,99.90
2019-02-10T22:45:38.578Z,99.90
2019-02-10T22:48:07.342Z,99.90
2019-02-10T22:50:36.064Z,99.90
2019-02-10T22:53:04.871Z,99.90
2019-02-10T22:55:33.653Z,99.90
2019-02-10T22:58:02.428Z,99.90
2019-02-10T23:00:39.213Z,99.90
2019-02-10T23:03:07.988Z,99.90
2019-02-10T23:05:36.763Z,99.90
2019-02-10T23:08:05.518Z,99.90
2019-02-10T23:10:34.268Z,99.90
2019-02-10T23:13:03.065Z,99.90
2019-02-10T23:15:31.887Z,99.90
2019-02-10T23:18:00.659Z,99.90
2019-02-10T23:20:29.403Z,99.90
2019-02-10T23:22:58.148Z,99.90
2019-02-10T23:25:26.922Z,99.90
2019-02-10T23:27:55.667Z,99.90
2019-02-10T23:30:24.798Z,99.90
2019-02-10T23:32:53.621Z,99.90
2019-02-10T23:35:22.447Z,99.90
2019-02-10T23:37:51.196Z,99.90
2019-02-10T23:40:19.972Z,99.90
2019-02-10T23:42:48.780Z,99.90
2019-02-10T23:45:17.542Z,99.90
2019-02-10T23:47:46.335Z,99.90
2019-02-10T23:50:15.115Z,99.90
2019-02-10T23:52:43.945Z,99.90
2019-02-10T23:55:12.746Z,99.90
2019-02-10T23:57:41.492Z,99.90
